Time;durP1;ratioP1;P1;durP2;ratioP2;P2;SDS_P1;SDS_P2;PMS_P1;PMS_P2;Temp;Humidity;BMP_temperature;BMP_pressure;BME280_temperature;BME280_humidity;BME280_pressure;Samples;Min_cycle;Max_cycle;Signal;HPM_P1;HPM_P2
2021/07/24 00:01:39;;;;;;;16.80;7.38;;;;;;;23.32;56.71;100761.81;3571863;40;20065;-80
2021/07/24 00:04:08;;;;;;;12.38;6.38;;;;;;;23.32;56.94;100764.47;3574251;40;20061;-80
2021/07/24 00:06:45;;;;;;;13.43;6.82;;;;;;;23.25;56.95;100765.88;3574317;40;21068;-80
2021/07/24 00:09:14;;;;;;;14.15;6.60;;;;;;;23.28;55.87;100773.66;3564980;40;20563;-80
2021/07/24 00:11:45;;;;;;;14.43;8.02;;;;;;;23.27;56.94;100785.28;3572636;40;20061;-80
2021/07/24 00:14:11;;;;;;;16.95;7.95;;;;;;;23.22;56.83;100776.78;3572662;40;20053;-81
2021/07/24 00:16:38;;;;;;;12.43;6.15;;;;;;;23.19;56.58;100771.69;3575443;40;20069;-80
2021/07/24 00:19:07;;;;;;;15.35;8.18;;;;;;;23.10;56.96;100761.69;3583874;40;20398;-80
2021/07/24 00:21:34;;;;;;;12.95;6.30;;;;;;;23.10;55.63;100761.69;3572323;40;20061;-81
2021/07/24 00:24:03;;;;;;;20.48;6.97;;;;;;;23.07;55.69;100767.28;3578818;40;20045;-80
2021/07/24 00:26:31;;;;;;;14.98;6.75;;;;;;;23.01;56.44;100766.75;3572563;40;20089;-81
2021/07/24 00:29:00;;;;;;;13.88;7.53;;;;;;;23.02;56.60;100767.59;3574409;40;20118;-80
2021/07/24 00:31:28;;;;;;;14.18;7.35;;;;;;;22.99;57.37;100767.81;3575657;40;20049;-80
2021/07/24 00:33:56;;;;;;;13.55;7.68;;;;;;;22.91;56.69;100757.75;3576560;40;20049;-81
2021/07/24 00:36:25;;;;;;;14.30;7.93;;;;;;;22.90;56.65;100758.69;3572856;40;20040;-80
2021/07/24 00:38:53;;;;;;;11.65;6.43;;;;;;;22.85;56.46;100754.63;3576104;40;20070;-80
2021/07/24 00:41:30;;;;;;;14.73;6.75;;;;;;;22.77;56.00;100745.41;3551054;40;20607;-80
2021/07/24 00:44:00;;;;;;;14.55;7.18;;;;;;;22.72;56.63;100741.38;3564339;40;20055;-80
2021/07/24 00:46:31;;;;;;;12.23;5.82;;;;;;;22.69;55.26;100741.59;3551700;40;20667;-81
2021/07/24 00:49:07;;;;;;;15.07;6.03;;;;;;;22.68;55.69;100747.88;3559103;40;20482;-80
2021/07/24 00:51:55;;;;;;;10.77;5.20;;;;;;;22.56;55.41;100735.44;3564424;40;20043;-80
2021/07/24 00:54:22;;;;;;;11.13;5.97;;;;;;;22.50;56.16;100737.59;3565606;40;20049;-79
2021/07/24 00:56:50;;;;;;;20.38;7.05;;;;;;;22.50;56.70;100734.94;3572440;40;20077;-80
2021/07/24 00:59:20;;;;;;;12.57;6.47;;;;;;;22.46;55.99;100727.31;3578370;40;20068;-79
2021/07/24 01:01:47;;;;;;;13.65;6.45;;;;;;;22.35;56.96;100712.06;3564804;40;20061;-80
2021/07/24 01:04:15;;;;;;;15.82;7.15;;;;;;;22.40;57.19;100730.38;3558430;40;20040;-80
2021/07/24 01:06:44;;;;;;;14.98;6.85;;;;;;;22.34;57.09;100715.72;3581748;40;20049;-80
2021/07/24 01:09:13;;;;;;;15.60;8.18;;;;;;;22.33;56.24;100713.16;3582026;40;20053;-80
2021/07/24 01:11:43;;;;;;;14.18;7.07;;;;;;;22.33;56.89;100719.34;3559838;40;20060;-80
2021/07/24 01:14:14;;;;;;;12.65;7.03;;;;;;;22.25;56.88;100708.38;3562878;40;20470;-80
2021/07/24 01:16:45;;;;;;;13.90;7.25;;;;;;;22.26;56.50;100710.09;3568220;40;20061;-81
2021/07/24 01:19:19;;;;;;;13.20;7.47;;;;;;;22.20;56.29;100702.53;3554910;40;20666;-80
2021/07/24 01:21:46;;;;;;;15.75;7.78;;;;;;;22.17;56.05;100700.13;3560000;40;20412;-80
2021/07/24 01:24:15;;;;;;;14.02;7.35;;;;;;;22.15;56.22;100699.34;3581880;40;20111;-80
2021/07/24 01:26:45;;;;;;;14.65;7.82;;;;;;;22.12;55.84;100702.25;3572535;40;20056;-80
2021/07/24 01:29:18;;;;;;;13.40;7.15;;;;;;;22.09;54.85;100699.75;3568089;40;20086;-80
2021/07/24 01:31:54;;;;;;;15.18;7.80;;;;;;;22.05;54.82;100693.84;3564931;40;20052;-79
2021/07/24 01:34:22;;;;;;;13.68;7.22;;;;;;;21.96;55.19;100683.84;3554070;40;20156;-80
2021/07/24 01:36:51;;;;;;;14.68;6.95;;;;;;;21.95;55.22;100693.63;3579962;40;22587;-80
2021/07/24 01:39:20;;;;;;;15.38;7.47;;;;;;;21.94;55.65;100691.91;3566152;40;20396;-80
2021/07/24 01:41:48;;;;;;;16.10;8.23;;;;;;;21.89;55.67;100678.09;3560174;40;20041;-80
2021/07/24 01:44:16;;;;;;;12.93;6.43;;;;;;;21.84;55.43;100674.91;3585958;40;20117;-80
2021/07/24 01:46:45;;;;;;;15.10;7.55;;;;;;;21.73;56.17;100658.84;3566981;40;20052;-80
2021/07/24 01:55:12;;;;;;;14.30;7.15;;;;;;;21.68;54.90;100663.63;3583739;40;20049;-79
2021/07/24 01:57:53;;;;;;;9.95;5.22;;;;;;;21.55;54.91;100641.56;3561152;40;20107;-80
2021/07/24 02:00:24;;;;;;;13.43;6.15;;;;;;;21.59;54.96;100667.78;3576902;40;20660;-80
2021/07/24 02:03:41;;;;;;;13.45;6.85;;;;;;;21.47;55.28;100645.56;3568381;40;20060;-80
2021/07/24 02:06:16;;;;;;;14.32;7.68;;;;;;;21.49;55.42;100654.31;3568264;40;20048;-80
2021/07/24 02:09:00;;;;;;;14.45;7.22;;;;;;;21.39;56.00;100645.28;3567872;40;20065;-80
2021/07/24 02:11:32;;;;;;;11.93;6.40;;;;;;;21.37;55.55;100651.63;3570367;40;20056;-79
2021/07/24 02:14:00;;;;;;;16.00;7.60;;;;;;;21.27;57.34;100645.22;3561118;40;20052;-79
2021/07/24 02:16:28;;;;;;;14.57;7.43;;;;;;;21.30;55.99;100658.28;3568843;40;20105;-80
2021/07/24 02:19:01;;;;;;;16.33;7.93;;;;;;;21.28;56.17;100649.56;3563217;40;20393;-80
2021/07/24 02:21:36;;;;;;;14.95;7.50;;;;;;;21.23;56.56;100658.69;3549799;40;20045;-79
2021/07/24 02:24:04;;;;;;;15.50;7.72;;;;;;;21.11;56.55;100642.75;3572563;40;20065;-80
2021/07/24 02:26:30;;;;;;;12.80;7.05;;;;;;;21.12;56.98;100655.91;3567125;40;20442;-80
2021/07/24 02:28:58;;;;;;;;;;;;;;;21.18;54.26;100660.81;3569676;40;22441;-80
2021/07/24 02:31:31;;;;;;;13.30;6.25;;;;;;;21.10;56.63;100657.84;3568684;40;19936;-80
2021/07/24 02:34:01;;;;;;;13.80;7.20;;;;;;;21.07;57.21;100657.19;3569634;23;20035;-80
2021/07/24 02:36:28;;;;;;;13.43;7.32;;;;;;;21.06;57.36;100666.09;3547686;40;20049;-80
2021/07/24 02:38:56;;;;;;;12.88;6.40;;;;;;;20.98;57.22;100654.22;3539570;40;20071;-80
2021/07/24 02:41:24;;;;;;;15.13;7.57;;;;;;;20.96;57.59;100650.78;3534501;40;20178;-80
2021/07/24 02:44:01;;;;;;;16.02;7.28;;;;;;;20.96;57.05;100661.41;3538662;40;20061;-80
2021/07/24 02:46:55;;;;;;;9.13;4.05;;;;;;;20.95;55.86;100667.66;3550859;40;20573;-79
2021/07/24 02:49:31;;;;;;;10.35;5.55;;;;;;;20.88;56.94;100663.75;3547822;40;20074;-80
2021/07/24 02:52:00;;;;;;;11.02;5.28;;;;;;;20.84;57.52;100664.88;3529534;40;20054;-80
2021/07/24 02:54:28;;;;;;;13.68;5.75;;;;;;;20.80;56.93;100655.41;3560194;40;20053;-79
2021/07/24 02:56:56;;;;;;;14.25;7.40;;;;;;;20.66;57.94;100636.88;3555024;40;20771;-80
2021/07/24 02:59:24;;;;;;;13.57;6.13;;;;;;;20.80;58.61;100665.19;3507289;40;20158;-80
2021/07/24 03:01:53;;;;;;;12.25;6.05;;;;;;;20.75;58.56;100657.53;3548712;40;20041;-80
2021/07/24 03:04:30;;;;;;;11.75;5.93;;;;;;;20.69;57.51;100652.63;3540679;40;20046;-80
2021/07/24 03:06:58;;;;;;;11.15;5.43;;;;;;;20.70;58.33;100655.16;3538978;40;20801;-80
2021/07/24 03:09:26;;;;;;;13.15;6.30;;;;;;;20.57;58.47;100632.19;3544277;40;20060;-80
2021/07/24 03:12:02;;;;;;;13.05;6.75;;;;;;;20.66;57.54;100658.13;3545723;40;20062;-80
2021/07/24 03:14:29;;;;;;;12.82;6.07;;;;;;;20.61;58.32;100661.06;3527305;40;20062;-80
2021/07/24 03:16:58;;;;;;;10.75;5.15;;;;;;;20.57;57.74;100648.94;3548302;40;20440;-79
2021/07/24 03:19:27;;;;;;;11.38;5.88;;;;;;;20.55;58.66;100650.00;3531987;40;20906;-80
2021/07/24 03:21:55;;;;;;;14.13;6.05;;;;;;;20.44;58.43;100632.97;3543376;40;20030;-80
2021/07/24 03:24:21;;;;;;;10.70;5.75;;;;;;;20.41;59.08;100627.84;3548152;40;20950;-80
2021/07/24 03:26:50;;;;;;;11.82;4.95;;;;;;;20.41;58.17;100627.00;3540341;40;20063;-80
2021/07/24 03:29:22;;;;;;;11.35;5.40;;;;;;;20.41;58.55;100632.31;3529458;40;20057;-80
2021/07/24 03:32:01;;;;;;;13.52;5.68;;;;;;;20.38;57.84;100627.22;3555534;40;20058;-80
2021/07/24 03:34:30;;;;;;;11.18;5.30;;;;;;;20.33;58.42;100624.84;3541763;40;20408;-78
2021/07/24 03:36:57;;;;;;;12.02;5.57;;;;;;;20.26;59.53;100617.38;3528764;40;20404;-80
2021/07/24 03:39:30;;;;;;;10.27;5.23;;;;;;;20.26;58.68;100627.97;3540652;40;20432;-80
2021/07/24 03:42:26;;;;;;;10.05;4.75;;;;;;;20.24;57.57;100635.19;3543404;40;20069;-80
2021/07/24 03:44:58;;;;;;;9.32;4.78;;;;;;;20.18;58.98;100620.53;3540413;40;20053;-80
2021/07/24 03:47:26;;;;;;;11.10;4.97;;;;;;;20.10;59.61;100618.34;3521807;40;20069;-80
2021/07/24 03:49:57;;;;;;;11.82;4.85;;;;;;;20.07;59.14;100609.75;3533214;40;20054;-80
2021/07/24 03:52:26;;;;;;;11.88;4.95;;;;;;;20.04;59.91;100616.09;3566075;40;20081;-80
2021/07/24 03:54:52;;;;;;;11.52;4.75;;;;;;;20.01;59.94;100612.78;3533693;40;20826;-80
2021/07/24 03:57:27;;;;;;;11.73;5.00;;;;;;;19.96;59.42;100603.31;3543709;40;20058;-80
2021/07/24 03:59:54;;;;;;;9.82;4.47;;;;;;;19.94;60.13;100612.34;3533822;40;20053;-80
2021/07/24 04:02:24;;;;;;;9.43;4.30;;;;;;;19.89;60.03;100609.97;3556710;40;20113;-80
2021/07/24 04:05:01;;;;;;;8.48;4.07;;;;;;;19.89;58.82;100594.06;3552966;40;20045;-80
2021/07/24 04:07:36;;;;;;;9.13;4.15;;;;;;;19.87;59.64;100601.28;3527174;40;20069;-79
2021/07/24 04:10:05;;;;;;;9.95;4.43;;;;;;;19.76;60.17;100566.63;3528665;40;20069;-80
2021/07/24 04:12:35;;;;;;;14.15;5.18;;;;;;;19.80;60.29;100578.75;3526092;40;20070;-80
2021/07/24 04:15:04;;;;;;;9.32;4.28;;;;;;;19.78;60.89;100575.34;3543395;40;20092;-80
2021/07/24 04:17:32;;;;;;;9.82;4.78;;;;;;;19.72;61.50;100559.84;3543399;40;20097;-80
2021/07/24 04:20:02;;;;;;;12.93;5.63;;;;;;;19.72;60.92;100575.75;3555149;40;20651;-80
2021/07/24 04:22:30;;;;;;;10.23;4.95;;;;;;;19.62;61.32;100562.22;3526336;40;20085;-80
2021/07/24 04:24:57;;;;;;;11.15;5.07;;;;;;;19.63;61.23;100571.88;3530796;40;20069;-80
2021/07/24 04:27:25;;;;;;;;;;;;;;;19.68;58.18;100584.81;3526147;40;20747;-80
2021/07/24 04:29:52;;;;;;;11.45;4.43;;;;;;;19.60;61.20;100576.50;3539150;40;19966;-80
2021/07/24 04:32:19;;;;;;;11.40;4.32;;;;;;;19.56;61.02;100575.78;3542592;40;20113;-80
2021/07/24 04:34:46;;;;;;;9.40;4.30;;;;;;;19.52;60.47;100573.44;3550412;40;20103;-80
2021/07/24 04:37:16;;;;;;;10.88;4.57;;;;;;;19.58;60.47;100581.00;3565181;40;20535;-80
2021/07/24 04:39:51;;;;;;;10.57;4.65;;;;;;;19.60;59.71;100587.09;3569708;40;20852;-79
2021/07/24 04:42:18;;;;;;;9.65;4.32;;;;;;;19.52;61.43;100573.44;3537969;40;20790;-79
2021/07/24 04:44:47;;;;;;;10.23;4.25;;;;;;;19.55;61.29;100578.53;3544124;40;20164;-80
2021/07/24 04:47:21;;;;;;;10.88;4.80;;;;;;;19.57;60.47;100582.81;3562095;40;20060;-80
2021/07/24 04:49:54;;;;;;;11.48;5.75;;;;;;;19.53;61.24;100575.16;3543336;40;20159;-80
2021/07/24 04:52:22;;;;;;;11.23;4.80;;;;;;;19.58;62.21;100578.38;3552768;40;20065;-79
2021/07/24 04:54:50;;;;;;;14.32;4.78;;;;;;;19.59;61.72;100580.06;3522630;40;20050;-80
2021/07/24 04:57:19;;;;;;;13.25;5.00;;;;;;;19.55;61.83;100578.53;3550538;40;20060;-80
2021/07/24 04:59:51;;;;;;;12.52;5.25;;;;;;;19.58;60.79;100583.66;3560851;40;20045;-80
2021/07/24 05:02:22;;;;;;;13.27;6.22;;;;;;;19.56;61.46;100582.88;3569025;40;20050;-80
2021/07/24 05:04:50;;;;;;;12.90;6.47;;;;;;;19.61;61.65;100599.38;3574466;40;20061;-80
2021/07/24 05:07:23;;;;;;;14.65;6.18;;;;;;;19.61;60.86;100594.09;3563946;40;20061;-80
2021/07/24 05:10:16;;;;;;;11.45;5.30;;;;;;;19.64;59.35;100615.09;3556163;40;20444;-80
2021/07/24 05:12:42;;;;;;;11.63;4.57;;;;;;;19.60;61.12;100618.88;3555312;40;20085;-79
2021/07/24 05:15:09;;;;;;;11.93;4.97;;;;;;;19.57;61.45;100619.06;3574506;40;20101;-80
2021/07/24 05:17:42;;;;;;;10.83;5.57;;;;;;;19.67;60.65;100631.66;3561455;40;20432;-80
2021/07/24 05:20:15;;;;;;;11.02;4.95;;;;;;;19.65;60.95;100638.00;3545334;40;20280;-80
2021/07/24 05:23:08;;;;;;;10.70;4.55;;;;;;;19.72;59.79;100630.50;3557362;40;20064;-79
2021/07/24 05:25:35;;;;;;;10.00;4.68;;;;;;;19.63;61.41;100605.44;3556349;40;20081;-80
2021/07/24 05:28:02;;;;;;;11.38;5.22;;;;;;;19.75;61.53;100623.22;3564220;40;20135;-80
2021/07/24 05:30:31;;;;;;;9.23;4.32;;;;;;;19.77;61.07;100621.34;3573709;40;20069;-79
2021/07/24 05:32:58;;;;;;;9.65;4.32;;;;;;;19.81;61.43;100625.50;3550774;40;20111;-80
2021/07/24 05:35:30;;;;;;;10.98;5.07;;;;;;;19.85;60.96;100629.66;3566686;40;20061;-80
2021/07/24 05:37:59;;;;;;;8.98;3.83;;;;;;;19.88;61.43;100628.63;3555910;40;20053;-80
2021/07/24 05:40:27;;;;;;;11.40;4.38;;;;;;;19.90;61.13;100630.22;3565596;40;20057;-80
2021/07/24 05:43:01;;;;;;;9.63;3.65;;;;;;;19.96;60.64;100637.78;3536983;40;20457;-80
2021/07/24 05:45:29;;;;;;;7.22;3.65;;;;;;;19.94;61.37;100628.25;3554834;40;20608;-80
2021/07/24 05:48:01;;;;;;;10.52;3.25;;;;;;;20.03;60.09;100627.66;3565819;40;20065;-79
2021/07/24 05:50:33;;;;;;;9.23;3.67;;;;;;;20.05;60.36;100611.66;3567639;40;20560;-80
2021/07/24 05:53:00;;;;;;;9.85;4.40;;;;;;;20.04;60.82;100604.66;3553941;40;20058;-80
2021/07/24 05:55:28;;;;;;;9.35;3.67;;;;;;;20.15;60.26;100612.75;3565445;40;20065;-80
2021/07/24 05:57:55;;;;;;;11.50;4.25;;;;;;;20.15;60.23;100610.13;3548397;40;20070;-80
2021/07/24 06:00:23;;;;;;;8.98;4.13;;;;;;;20.17;59.69;100616.16;3572059;40;20084;-79
2021/07/24 06:02:50;;;;;;;10.00;4.43;;;;;;;20.18;59.83;100615.22;3558256;40;20436;-80
2021/07/24 06:05:23;;;;;;;10.57;4.43;;;;;;;20.18;59.27;100609.94;3566907;40;20132;-80
2021/07/24 06:08:19;;;;;;;7.60;3.47;;;;;;;20.23;58.52;100626.41;3550866;40;20070;-80
2021/07/24 06:10:46;;;;;;;7.60;3.53;;;;;;;20.16;59.31;100628.56;3572287;40;20077;-80
2021/07/24 06:13:13;;;;;;;11.13;4.37;;;;;;;20.18;59.62;100636.44;3564863;40;20076;-80
2021/07/24 06:15:43;;;;;;;8.73;4.10;;;;;;;20.17;59.49;100645.31;3555762;40;20434;-79
2021/07/24 06:18:12;;;;;;;8.85;3.92;;;;;;;20.14;59.46;100629.63;3572938;40;20060;-81
2021/07/24 06:20:39;;;;;;;8.27;3.38;;;;;;;20.14;59.53;100641.09;3550876;40;20081;-80
2021/07/24 06:23:06;;;;;;;8.00;3.60;;;;;;;20.13;59.38;100636.75;3567330;40;20042;-80
2021/07/24 06:25:34;;;;;;;7.53;3.40;;;;;;;20.20;59.16;100639.84;3576002;40;20427;-79
2021/07/24 06:28:01;;;;;;;8.20;3.90;;;;;;;20.20;59.91;100646.00;3560358;40;20442;-80
2021/07/24 06:30:28;;;;;;;8.37;3.60;;;;;;;20.23;59.85;100639.66;3544229;40;20061;-80
2021/07/24 06:32:55;;;;;;;5.53;2.45;;;;;;;20.24;59.69;100640.50;3545163;40;20332;-79
2021/07/24 06:35:22;;;;;;;6.78;3.17;;;;;;;20.25;60.24;100632.44;3567048;40;20089;-79
2021/07/24 06:37:51;;;;;;;9.20;3.57;;;;;;;20.33;59.87;100630.16;3539787;40;20116;-80
2021/07/24 06:40:20;;;;;;;9.07;4.50;;;;;;;20.34;59.46;100634.50;3565055;40;20264;-80
2021/07/24 06:43:16;;;;;;;9.02;3.83;;;;;;;20.47;58.64;100647.84;3570017;40;20069;-79
2021/07/24 06:45:44;;;;;;;7.72;3.83;;;;;;;20.47;59.59;100643.38;3568096;40;20053;-80
2021/07/24 06:48:14;;;;;;;8.18;3.38;;;;;;;20.47;59.52;100627.47;3551734;40;20701;-80
2021/07/24 06:51:02;;;;;;;7.28;3.38;;;;;;;20.59;59.95;100635.59;3565011;40;20064;-81
2021/07/24 06:53:31;;;;;;;;;;;;;;;20.70;57.92;100638.41;3571605;40;20441;-80
2021/07/24 06:56:04;;;;;;;7.70;3.42;;;;;;;20.73;59.18;100638.19;3559826;40;19948;-80
2021/07/24 06:58:33;;;;;;;7.97;3.60;;;;;;;20.75;59.29;100633.63;3565742;40;20058;-79
2021/07/24 07:01:04;;;;;;;9.65;4.18;;;;;;;20.81;58.60;100630.56;3560663;40;20057;-80
2021/07/24 07:03:51;;;;;;;7.07;2.50;;;;;;;20.95;57.68;100633.16;3555863;40;20054;-80
2021/07/24 07:06:19;;;;;;;7.57;3.60;;;;;;;20.95;58.54;100646.44;3543529;40;20046;-79
2021/07/24 07:08:46;;;;;;;7.25;3.35;;;;;;;20.94;58.60;100647.41;3558658;40;20065;-80
2021/07/24 07:11:13;;;;;;;9.87;3.33;;;;;;;21.03;58.71;100655.69;3559532;40;20066;-80
2021/07/24 07:13:41;;;;;;;7.45;3.28;;;;;;;21.11;58.10;100648.91;3563205;40;20282;-80
2021/07/24 07:16:09;;;;;;;5.65;2.58;;;;;;;21.13;58.37;100640.81;3564524;40;20053;-80
2021/07/24 07:18:38;;;;;;;6.30;3.03;;;;;;;21.08;57.74;100622.53;3551847;40;20829;-78
2021/07/24 07:21:09;;;;;;;8.23;3.45;;;;;;;21.27;58.27;100643.41;3565773;40;20060;-79
2021/07/24 07:23:38;;;;;;;7.60;3.00;;;;;;;21.36;58.01;100648.13;3555700;40;20061;-79
2021/07/24 07:26:04;;;;;;;5.20;2.60;;;;;;;21.42;57.21;100633.56;3566994;40;20427;-78
2021/07/24 07:28:31;;;;;;;6.93;2.88;;;;;;;21.52;56.77;100633.78;3573845;40;20441;-78
2021/07/24 07:30:59;;;;;;;8.27;3.40;;;;;;;21.61;56.60;100636.66;3567832;40;20057;-78
2021/07/24 07:33:28;;;;;;;13.10;3.55;;;;;;;21.76;56.07;100640.03;3547575;40;20057;-78
2021/07/24 07:35:55;;;;;;;7.10;2.60;;;;;;;21.81;55.85;100643.22;3555978;40;20419;-78
2021/07/24 07:38:25;;;;;;;6.10;2.83;;;;;;;21.90;55.69;100639.06;3566701;40;20099;-78
2021/07/24 07:40:52;;;;;;;7.57;2.63;;;;;;;21.94;55.09;100633.41;3555436;40;20796;-78
2021/07/24 07:43:19;;;;;;;5.40;2.53;;;;;;;22.03;54.80;100638.06;3565844;40;20084;-78
2021/07/24 07:45:52;;;;;;;5.78;2.75;;;;;;;22.10;54.75;100634.97;3565651;40;20056;-77
2021/07/24 07:48:18;;;;;;;6.95;2.85;;;;;;;22.00;54.22;100622.34;3561047;40;20135;-78
2021/07/24 07:50:45;;;;;;;6.20;3.47;;;;;;;22.03;54.57;100613.28;3562041;40;20049;-78
2021/07/24 07:53:13;;;;;;;;;;;;;;;22.30;54.40;100645.06;3557956;40;20065;-78
2021/07/24 07:55:41;;;;;;;4.72;2.33;;;;;;;22.22;54.60;100634.13;3562325;40;19945;-78
2021/07/24 07:58:11;;;;;;;;;;;;;;;22.42;54.17;100638.84;3564368;40;20448;-79
2021/07/24 08:00:39;;;;;;;5.60;2.33;;;;;;;22.43;54.11;100645.88;3561524;40;19948;-79
2021/07/24 08:03:06;;;;;;;7.85;3.08;;;;;;;22.39;53.33;100631.09;3557811;40;20143;-77
2021/07/24 08:05:34;;;;;;;6.10;2.80;;;;;;;22.49;53.26;100626.78;3565985;40;20146;-78
2021/07/24 08:08:05;;;;;;;6.03;2.72;;;;;;;22.60;52.72;100641.09;3564322;40;20122;-78
2021/07/24 08:10:31;;;;;;;5.28;2.63;;;;;;;22.52;52.46;100623.91;3552465;40;20364;-78
2021/07/24 08:12:58;;;;;;;6.15;2.70;;;;;;;22.52;52.53;100634.56;3564979;40;20509;-79
2021/07/24 08:15:25;;;;;;;4.35;1.95;;;;;;;22.53;53.27;100620.28;3564487;40;20042;-77
2021/07/24 08:17:56;;;;;;;6.35;2.80;;;;;;;22.57;52.51;100620.06;3563922;40;20116;-79
2021/07/24 08:20:29;;;;;;;5.88;2.67;;;;;;;22.60;52.52;100635.78;3543041;40;20072;-78
2021/07/24 08:22:56;;;;;;;6.28;2.75;;;;;;;22.50;52.54;100631.13;3573208;40;20081;-78
2021/07/24 08:25:28;;;;;;;7.75;2.83;;;;;;;22.61;52.64;100640.13;3564402;40;20061;-78
2021/07/24 08:27:59;;;;;;;6.07;2.70;;;;;;;22.65;52.14;100644.28;3570632;40;20066;-78
2021/07/24 08:30:33;;;;;;;5.47;2.53;;;;;;;22.68;52.72;100646.72;3547090;40;20058;-78
2021/07/24 08:33:03;;;;;;;5.22;2.60;;;;;;;22.73;51.49;100653.41;3562721;40;20070;-78
2021/07/24 08:35:55;;;;;;;5.57;2.60;;;;;;;22.83;52.04;100636.75;3558495;40;20429;-78
2021/07/24 08:38:24;;;;;;;6.57;3.25;;;;;;;22.76;51.37;100625.72;3558056;40;20138;-78
2021/07/24 08:40:52;;;;;;;6.15;2.55;;;;;;;22.75;51.54;100626.66;3569708;40;20061;-77
2021/07/24 08:43:19;;;;;;;5.60;2.53;;;;;;;22.81;50.63;100628.88;3563816;40;20076;-78
2021/07/24 08:45:47;;;;;;;5.40;2.80;;;;;;;22.92;51.55;100636.94;3563617;40;20085;-78
2021/07/24 08:48:22;;;;;;;4.47;2.40;;;;;;;22.98;51.75;100633.81;3561859;40;20050;-78
2021/07/24 08:50:58;;;;;;;6.35;2.35;;;;;;;23.02;51.33;100632.63;3551747;40;20058;-78
2021/07/24 08:53:26;;;;;;;7.32;3.03;;;;;;;23.02;49.73;100621.97;3555128;40;20171;-78
2021/07/24 08:56:13;;;;;;;5.82;2.75;;;;;;;23.15;49.88;100637.00;3559781;40;20050;-79
2021/07/24 08:58:44;;;;;;;7.10;3.15;;;;;;;23.17;50.13;100640.41;3537602;40;20062;-78
2021/07/24 09:01:21;;;;;;;7.28;2.88;;;;;;;23.23;50.09;100637.28;3565136;40;20098;-78
2021/07/24 09:03:49;;;;;;;6.85;3.50;;;;;;;23.25;49.96;100627.34;3542012;40;20059;-78
2021/07/24 09:06:23;;;;;;;7.32;3.22;;;;;;;23.35;49.88;100631.00;3563935;40;20057;-78
2021/07/24 09:08:52;;;;;;;8.15;3.83;;;;;;;23.40;49.23;100635.97;3551932;40;20056;-78
2021/07/24 09:11:20;;;;;;;6.93;3.67;;;;;;;23.40;49.49;100631.47;3565018;40;20077;-77
2021/07/24 09:13:47;;;;;;;8.05;3.75;;;;;;;23.48;49.34;100638.91;3567562;40;20068;-79
2021/07/24 09:16:15;;;;;;;9.38;4.28;;;;;;;23.48;48.94;100629.09;3548744;40;20423;-78
2021/07/24 09:18:44;;;;;;;14.27;4.65;;;;;;;23.60;49.27;100624.59;3562773;40;20042;-78
2021/07/24 09:21:14;;;;;;;8.85;4.20;;;;;;;23.70;48.74;100622.09;3568821;40;20064;-78
2021/07/24 09:23:48;;;;;;;8.32;4.22;;;;;;;23.78;49.18;100620.53;3563794;40;20142;-79
2021/07/24 09:26:36;;;;;;;8.77;4.28;;;;;;;23.89;48.63;100622.34;3558872;40;20626;-78
2021/07/24 09:29:11;;;;;;;8.00;4.28;;;;;;;23.90;48.17;100624.03;3556690;40;20049;-79
2021/07/24 09:31:39;;;;;;;10.30;4.80;;;;;;;23.88;47.39;100617.97;3554457;40;20061;-78
2021/07/24 09:34:07;;;;;;;8.77;4.57;;;;;;;24.07;47.58;100626.19;3555842;40;20644;-79
2021/07/24 09:36:35;;;;;;;9.30;4.53;;;;;;;24.25;47.63;100617.69;3552877;40;20054;-79
2021/07/24 09:39:26;;;;;;;9.65;4.57;;;;;;;24.61;48.47;100629.84;3558366;40;20121;-77
2021/07/24 09:41:55;;;;;;;10.93;6.22;;;;;;;24.78;45.86;100636.47;3566585;40;20063;-78
2021/07/24 09:44:30;;;;;;;10.88;6.13;;;;;;;24.95;46.63;100617.22;3565079;40;20437;-78
2021/07/24 09:46:58;;;;;;;10.73;5.75;;;;;;;25.03;45.00;100630.75;3540288;40;20063;-79
2021/07/24 09:49:35;;;;;;;10.05;6.53;;;;;;;25.15;45.98;100620.91;3555789;40;20785;-79
2021/07/24 09:52:12;;;;;;;12.05;6.32;;;;;;;25.23;45.66;100618.41;3559162;40;20061;-78
2021/07/24 09:54:40;;;;;;;;;;;;;;;25.36;46.73;100618.22;3561049;40;20089;-79
2021/07/24 09:57:33;;;;;;;11.65;6.00;;;;;;;25.39;45.46;100615.25;3574923;40;19948;-78
2021/07/24 10:00:24;;;;;;;9.68;5.57;;;;;;;25.42;45.65;100623.03;3566564;40;20498;-79
2021/07/24 10:03:11;;;;;;;11.80;6.13;;;;;;;25.46;46.32;100611.09;3578493;40;20075;-79
2021/07/24 10:05:41;;;;;;;9.95;4.47;;;;;;;25.53;44.56;100606.88;3563305;40;20067;-79
2021/07/24 10:08:13;;;;;;;7.78;4.30;;;;;;;25.69;45.25;100602.88;3572226;40;20061;-79
2021/07/24 10:10:45;;;;;;;9.05;4.72;;;;;;;25.79;44.67;100591.25;3560076;40;20059;-79
2021/07/24 10:13:14;;;;;;;8.50;4.53;;;;;;;26.01;45.31;100605.44;3563958;40;20072;-78
2021/07/24 10:15:46;;;;;;;9.95;5.88;;;;;;;26.23;43.93;100599.00;3553091;40;20061;-79
2021/07/24 10:18:15;;;;;;;8.48;4.70;;;;;;;26.38;43.84;100592.25;3560470;40;20067;-79
2021/07/24 10:20:44;;;;;;;10.15;4.95;;;;;;;26.47;42.56;100586.09;3568381;40;20551;-80
2021/07/24 10:23:12;;;;;;;9.48;4.55;;;;;;;26.62;42.02;100603.44;3572991;40;20700;-79
2021/07/24 10:25:45;;;;;;;9.93;5.18;;;;;;;26.79;42.45;100598.34;3571841;40;20056;-79
2021/07/24 10:28:14;;;;;;;9.65;5.75;;;;;;;26.79;40.89;100601.03;3559132;40;20114;-79
2021/07/24 10:30:43;;;;;;;7.57;4.40;;;;;;;26.80;41.59;100592.00;3559597;40;20065;-79
2021/07/24 10:33:11;;;;;;;7.93;4.32;;;;;;;26.91;42.45;100605.25;3572528;40;20345;-79
2021/07/24 10:35:40;;;;;;;6.95;4.15;;;;;;;27.00;41.05;100599.03;3562589;40;20049;-78
2021/07/24 10:38:30;;;;;;;7.28;4.07;;;;;;;27.24;42.86;100608.47;3557662;40;20146;-80
2021/07/24 10:41:22;;;;;;;7.38;4.43;;;;;;;27.44;42.26;100601.22;3571933;40;20108;-78
2021/07/24 10:44:00;;;;;;;7.72;4.22;;;;;;;27.60;41.82;100606.81;3572393;40;20069;-78
2021/07/24 10:46:43;;;;;;;8.65;3.88;;;;;;;27.76;42.05;100600.84;3569005;40;20072;-79
2021/07/24 10:49:22;;;;;;;8.40;3.75;;;;;;;27.88;41.53;100605.88;3554149;40;20057;-79
2021/07/24 10:51:57;;;;;;;7.38;3.38;;;;;;;27.94;40.47;100604.44;3558696;40;20067;-79
2021/07/24 10:54:25;;;;;;;7.85;3.83;;;;;;;28.03;39.31;100614.28;3553063;40;20635;-79
2021/07/24 10:56:58;;;;;;;7.68;3.95;;;;;;;28.21;39.53;100605.41;3562711;40;20119;-79
2021/07/24 10:59:28;;;;;;;9.77;4.13;;;;;;;28.28;39.33;100609.16;3546982;40;20113;-78
2021/07/24 11:02:00;;;;;;;6.57;3.60;;;;;;;28.41;39.09;100597.09;3563075;40;20051;-80
2021/07/24 11:04:43;;;;;;;7.10;3.72;;;;;;;28.66;39.77;100598.16;3561423;40;20069;-78
2021/07/24 11:07:21;;;;;;;7.72;4.45;;;;;;;28.78;38.15;100597.91;3570753;40;20060;-78
2021/07/24 11:09:51;;;;;;;6.30;3.45;;;;;;;28.88;38.14;100590.63;3550613;40;20071;-79
2021/07/24 11:12:38;;;;;;;6.18;3.22;;;;;;;29.01;39.17;100588.41;3552923;40;20458;-79
2021/07/24 11:15:19;;;;;;;6.05;3.38;;;;;;;29.04;37.63;100597.97;3566762;40;20061;-79
2021/07/24 11:18:22;;;;;;;7.57;3.92;;;;;;;29.10;38.58;100603.59;3559962;40;20115;-79
2021/07/24 11:20:53;;;;;;;8.88;3.78;;;;;;;29.04;37.49;100593.44;3559902;40;20082;-79
2021/07/24 11:23:21;;;;;;;7.93;3.90;;;;;;;28.99;37.18;100593.06;3558581;40;20067;-79
2021/07/24 11:25:47;;;;;;;8.38;4.32;;;;;;;28.96;36.57;100596.09;3561821;40;20146;-79
2021/07/24 11:28:22;;;;;;;6.63;3.80;;;;;;;29.00;37.64;100591.25;3556659;40;20061;-79
2021/07/24 11:31:02;;;;;;;6.65;3.63;;;;;;;29.01;38.30;100593.78;3551562;40;20096;-79
2021/07/24 11:33:32;;;;;;;8.88;4.97;;;;;;;28.95;36.95;100584.50;3559962;40;20537;-79
2021/07/24 11:36:05;;;;;;;13.80;4.82;;;;;;;29.11;36.55;100599.06;3561563;40;20066;-80
2021/07/24 11:38:35;;;;;;;7.82;5.45;;;;;;;29.06;36.35;100599.53;3559975;40;20052;-79
2021/07/24 11:41:05;;;;;;;8.55;5.68;;;;;;;29.07;36.29;100587.78;3570905;40;20510;-79
2021/07/24 11:43:31;;;;;;;8.93;5.50;;;;;;;29.03;37.24;100588.25;3548117;40;20073;-80
2021/07/24 11:46:01;;;;;;;8.88;4.47;;;;;;;29.12;37.17;100588.13;3560929;40;20053;-79
2021/07/24 11:48:29;;;;;;;8.20;4.50;;;;;;;29.28;36.86;100590.09;3569300;40;20064;-79